createdAt,value
2018-10-03T00:00:16.015Z,57.2
2018-10-03T00:03:15.100Z,57.2
2018-10-03T00:06:15.165Z,57.1
2018-10-03T00:09:15.311Z,57.2
2018-10-03T00:12:15.479Z,56.9
2018-10-03T00:15:15.484Z,56.9
2018-10-03T00:18:15.874Z,56.6
2018-10-03T00:21:14.961Z,57.1
2018-10-03T00:24:15.045Z,57.0
2018-10-03T00:27:15.308Z,56.9
2018-10-03T00:30:15.351Z,57.1
2018-10-03T00:33:15.319Z,57.2
2018-10-03T00:36:15.297Z,57.4
2018-10-03T00:39:15.397Z,57.5
2018-10-03T00:42:15.630Z,57.7
2018-10-03T00:45:15.816Z,57.8
2018-10-03T00:48:15.851Z,57.9
2018-10-03T00:51:14.955Z,58.0
2018-10-03T00:54:14.985Z,58.0
2018-10-03T00:57:15.147Z,58.1
2018-10-03T01:00:15.554Z,58.3
2018-10-03T01:03:15.794Z,58.4
2018-10-03T01:06:15.872Z,58.2
2018-10-03T01:09:15.843Z,58.4
2018-10-03T01:12:15.885Z,58.3
2018-10-03T01:15:15.915Z,58.2
2018-10-03T01:18:15.263Z,58.3
2018-10-03T01:21:15.325Z,58.3
2018-10-03T01:24:15.377Z,57.9
2018-10-03T01:27:15.410Z,58.1
2018-10-03T01:30:15.181Z,58.2
2018-10-03T01:33:15.220Z,58.0
2018-10-03T01:36:15.456Z,57.9
2018-10-03T01:39:15.618Z,58.0
2018-10-03T01:42:15.847Z,57.8
2018-10-03T01:45:14.958Z,57.8
2018-10-03T01:48:15.010Z,57.7
2018-10-03T01:51:15.129Z,57.8
2018-10-03T01:54:15.310Z,57.8
2018-10-03T01:57:15.418Z,57.9
2018-10-03T02:00:15.538Z,58.1
2018-10-03T02:03:15.587Z,58.2
2018-10-03T02:06:15.804Z,58.2
2018-10-03T02:09:15.083Z,58.1
2018-10-03T02:12:15.427Z,58.1
2018-10-03T02:15:15.404Z,58.0
2018-10-03T02:18:15.707Z,57.9
2018-10-03T02:21:15.978Z,58.4
2018-10-03T02:24:15.061Z,58.1
2018-10-03T02:27:15.322Z,58.1
2018-10-03T02:30:15.445Z,58.4
2018-10-03T02:33:15.421Z,58.4
2018-10-03T02:36:15.577Z,58.2
2018-10-03T02:39:15.744Z,58.2
2018-10-03T02:42:16.030Z,58.2
2018-10-03T02:45:15.351Z,58.5
2018-10-03T02:48:15.452Z,58.4
2018-10-03T02:51:15.480Z,58.6
2018-10-03T02:54:15.581Z,58.5
2018-10-03T02:57:15.173Z,58.8
2018-10-03T03:00:15.512Z,58.7
2018-10-03T03:03:15.830Z,59.0
2018-10-03T03:06:14.975Z,58.8
2018-10-03T03:09:15.113Z,59.0
2018-10-03T03:12:15.415Z,58.9
2018-10-03T03:15:15.622Z,58.9
2018-10-03T03:18:15.873Z,59.0
2018-10-03T03:21:15.896Z,58.7
2018-10-03T03:24:15.001Z,59.0
2018-10-03T03:27:15.171Z,58.9
2018-10-03T03:30:15.391Z,59.0
2018-10-03T03:33:15.451Z,59.2
2018-10-03T03:36:15.737Z,58.8
2018-10-03T03:39:15.822Z,59.1
2018-10-03T03:42:15.024Z,59.2
2018-10-03T03:45:15.364Z,58.9
2018-10-03T03:48:15.507Z,59.0
2018-10-03T03:51:15.754Z,59.1
2018-10-03T03:54:16.038Z,59.2
2018-10-03T03:57:15.386Z,59.1
2018-10-03T04:00:15.406Z,58.7
2018-10-03T04:03:15.410Z,58.8
2018-10-03T04:06:15.614Z,58.9
2018-10-03T04:09:15.837Z,58.9
2018-10-03T04:12:15.964Z,58.9
2018-10-03T04:15:15.079Z,58.8
2018-10-03T04:18:15.524Z,59.0
2018-10-03T04:21:15.751Z,58.6
2018-10-03T04:24:15.312Z,58.8
2018-10-03T04:27:15.952Z,58.7
2018-10-03T04:30:15.309Z,58.7
2018-10-03T04:33:15.621Z,58.6
2018-10-03T04:36:15.759Z,58.5
2018-10-03T04:39:15.461Z,58.3
2018-10-03T04:42:15.834Z,58.1
2018-10-03T04:45:15.045Z,57.9
2018-10-03T04:48:15.180Z,58.1
2018-10-03T04:51:15.655Z,58.1
2018-10-03T04:54:15.818Z,58.0
2018-10-03T04:57:15.109Z,58.2
2018-10-03T05:00:15.752Z,58.0
2018-10-03T05:03:15.306Z,58.2
2018-10-03T05:06:15.349Z,58.1
2018-10-03T05:09:15.997Z,58.3
2018-10-03T05:12:15.412Z,58.3
2018-10-03T05:15:16.015Z,58.4
2018-10-03T05:18:15.602Z,58.3
2018-10-03T05:21:15.412Z,58.5
2018-10-03T05:24:15.904Z,58.2
2018-10-03T05:27:15.343Z,58.4
2018-10-03T05:30:15.983Z,58.3
2018-10-03T05:33:15.596Z,58.4
2018-10-03T05:36:15.187Z,58.1
2018-10-03T05:39:15.732Z,58.2
2018-10-03T05:42:15.400Z,58.6
2018-10-03T05:45:15.789Z,58.5
2018-10-03T05:48:15.431Z,58.6
2018-10-03T05:51:15.368Z,58.5
2018-10-03T05:54:15.807Z,58.6
2018-10-03T05:57:15.309Z,58.3
2018-10-03T06:00:15.619Z,58.1
2018-10-03T06:03:15.170Z,57.7
2018-10-03T06:06:15.469Z,57.7
2018-10-03T06:09:16.067Z,57.5
2018-10-03T06:12:15.666Z,57.2
2018-10-03T06:15:15.516Z,57.2
2018-10-03T06:18:15.351Z,56.9
2018-10-03T06:21:15.731Z,56.7
2018-10-03T06:24:15.482Z,56.2
2018-10-03T06:27:15.904Z,55.8
2018-10-03T06:30:15.385Z,55.7
2018-10-03T06:33:15.856Z,55.3
2018-10-03T06:36:15.626Z,54.8
2018-10-03T06:39:15.302Z,54.5
2018-10-03T06:42:15.124Z,54.4
2018-10-03T06:45:15.087Z,54.0
2018-10-03T06:48:15.707Z,53.7
2018-10-03T06:51:15.122Z,53.7
2018-10-03T06:54:15.463Z,53.3
2018-10-03T06:57:15.790Z,53.3
2018-10-03T07:00:15.396Z,52.8
2018-10-03T07:03:15.029Z,52.7
2018-10-03T07:06:15.618Z,52.3
2018-10-03T07:09:15.867Z,52.4
2018-10-03T07:12:15.790Z,51.3
2018-10-03T07:15:15.574Z,51.3
2018-10-03T07:18:15.074Z,50.2
2018-10-03T07:21:15.437Z,49.8
2018-10-03T07:24:15.836Z,49.1
2018-10-03T07:27:15.965Z,47.9
2018-10-03T07:30:15.259Z,47.0
2018-10-03T07:33:15.694Z,47.8
2018-10-03T07:36:15.091Z,47.0
2018-10-03T07:39:15.417Z,46.7
2018-10-03T07:42:15.818Z,45.8
2018-10-03T07:45:15.121Z,46.2
2018-10-03T07:48:15.347Z,44.3
2018-10-03T07:51:15.329Z,43.4
2018-10-03T07:54:14.989Z,45.1
2018-10-03T07:57:15.285Z,42.3
2018-10-03T08:00:16.016Z,42.7
2018-10-03T08:03:15.217Z,40.2
2018-10-03T08:06:15.829Z,39.0
2018-10-03T08:09:15.091Z,39.3
2018-10-03T08:12:15.341Z,36.6
2018-10-03T08:15:15.647Z,35.7
2018-10-03T08:18:15.904Z,34.6
2018-10-03T08:21:15.156Z,33.7
2018-10-03T08:24:15.663Z,33.8
2018-10-03T08:27:15.414Z,31.0
2018-10-03T08:30:15.604Z,29.7
2018-10-03T08:33:15.903Z,31.5
2018-10-03T08:36:15.239Z,29.3
2018-10-03T08:39:15.750Z,26.9
2018-10-03T08:42:15.959Z,29.7
2018-10-03T08:45:15.572Z,29.0
2018-10-03T08:48:15.221Z,27.6
2018-10-03T08:51:15.636Z,26.3
2018-10-03T08:54:14.989Z,27.6
2018-10-03T08:57:15.415Z,28.4
2018-10-03T09:00:15.743Z,26.8
2018-10-03T09:03:15.396Z,27.9
2018-10-03T09:06:15.920Z,28.5
2018-10-03T09:09:15.755Z,25.5
2018-10-03T09:12:15.214Z,25.2
2018-10-03T09:15:15.830Z,27.0
2018-10-03T09:18:15.516Z,26.0
2018-10-03T09:21:15.918Z,24.4
2018-10-03T09:24:15.777Z,23.9
2018-10-03T09:27:15.101Z,24.7
2018-10-03T09:30:15.697Z,25.5
2018-10-03T09:33:15.162Z,25.7
2018-10-03T09:36:15.531Z,26.4
2018-10-03T09:39:15.839Z,24.3
2018-10-03T09:42:15.569Z,25.0
2018-10-03T09:45:15.880Z,26.0
2018-10-03T09:48:15.240Z,25.5
2018-10-03T09:51:15.622Z,26.0
2018-10-03T09:54:15.913Z,26.6
2018-10-03T09:57:15.140Z,28.1
2018-10-03T10:00:15.372Z,28.8
2018-10-03T10:03:15.821Z,28.5
2018-10-03T10:06:15.164Z,29.2
2018-10-03T10:09:15.548Z,29.5
2018-10-03T10:12:15.987Z,28.6
2018-10-03T10:15:15.646Z,29.7
2018-10-03T10:18:15.183Z,29.4
2018-10-03T10:21:15.567Z,29.5
2018-10-03T10:24:15.979Z,28.8
2018-10-03T10:27:15.354Z,28.2
2018-10-03T10:30:15.854Z,27.2
2018-10-03T10:33:14.997Z,26.8
2018-10-03T10:36:15.478Z,26.0
2018-10-03T10:39:15.907Z,25.6
2018-10-03T10:42:15.339Z,24.3
2018-10-03T10:45:15.586Z,21.9
2018-10-03T10:48:15.912Z,21.6
2018-10-03T10:51:15.388Z,23.5
2018-10-03T10:54:15.706Z,22.6
2018-10-03T10:57:15.841Z,23.5
2018-10-03T11:00:15.115Z,23.4
2018-10-03T11:03:15.483Z,24.2
2018-10-03T11:06:15.737Z,24.1
2018-10-03T11:09:15.427Z,23.5
2018-10-03T11:12:15.862Z,24.6
2018-10-03T11:15:15.173Z,25.4
2018-10-03T11:18:15.292Z,25.2
2018-10-03T11:21:15.494Z,25.7
2018-10-03T11:24:16.081Z,26.4
2018-10-03T11:27:15.830Z,26.6
2018-10-03T11:30:15.335Z,27.3
2018-10-03T11:33:15.693Z,27.5
2018-10-03T11:36:15.040Z,27.3
2018-10-03T11:39:15.523Z,27.4
2018-10-03T11:42:15.718Z,27.4
2018-10-03T11:45:15.045Z,27.1
2018-10-03T11:48:15.592Z,26.7
2018-10-03T11:51:15.098Z,27.0
2018-10-03T11:54:15.510Z,27.2
2018-10-03T11:57:15.865Z,27.2
2018-10-03T12:00:15.442Z,26.6
2018-10-03T12:03:15.891Z,27.2
2018-10-03T12:06:15.488Z,26.8
2018-10-03T12:09:15.550Z,27.2
2018-10-03T12:12:16.050Z,26.4
2018-10-03T12:15:15.483Z,25.8
2018-10-03T12:18:15.952Z,26.7
2018-10-03T12:21:15.495Z,27.0
2018-10-03T12:24:15.811Z,27.3
2018-10-03T12:27:14.999Z,27.2
2018-10-03T12:30:15.507Z,27.7
2018-10-03T12:33:15.024Z,27.9
2018-10-03T12:36:15.756Z,28.0
2018-10-03T12:39:15.841Z,28.2
2018-10-03T12:42:15.210Z,28.4
2018-10-03T12:45:15.718Z,29.0
2018-10-03T12:48:15.173Z,28.5
2018-10-03T12:51:15.420Z,28.3
2018-10-03T12:54:15.720Z,28.0
2018-10-03T12:57:16.084Z,27.9
2018-10-03T13:00:15.462Z,28.2
2018-10-03T13:03:15.440Z,28.2
2018-10-03T13:06:15.592Z,27.5
2018-10-03T13:09:15.955Z,28.0
2018-10-03T13:12:15.485Z,28.3
2018-10-03T13:15:15.891Z,28.4
2018-10-03T13:18:15.395Z,28.5
2018-10-03T13:21:15.702Z,28.4
2018-10-03T13:24:15.098Z,28.1
2018-10-03T13:27:15.893Z,28.1
2018-10-03T13:30:15.289Z,27.3
2018-10-03T13:33:15.961Z,27.9
2018-10-03T13:36:15.443Z,28.0
2018-10-03T13:39:15.656Z,28.0
2018-10-03T13:42:15.879Z,28.3
2018-10-03T13:45:15.145Z,28.2
2018-10-03T13:48:15.721Z,28.2
2018-10-03T13:51:15.168Z,28.2
2018-10-03T13:54:15.602Z,28.3
2018-10-03T13:57:15.059Z,28.6
2018-10-03T14:00:15.497Z,28.8
2018-10-03T14:03:14.968Z,28.9
2018-10-03T14:06:15.242Z,28.9
2018-10-03T14:09:15.616Z,29.0
2018-10-03T14:12:16.068Z,28.9
2018-10-03T14:15:15.397Z,29.1
2018-10-03T14:18:15.793Z,29.2
2018-10-03T14:21:15.298Z,29.2
2018-10-03T14:24:15.711Z,29.1
2018-10-03T14:27:15.641Z,29.0
2018-10-03T14:30:16.118Z,29.3
2018-10-03T14:33:15.553Z,29.0
2018-10-03T14:36:15.846Z,29.7
2018-10-03T14:39:15.216Z,29.5
2018-10-03T14:42:15.698Z,29.6
2018-10-03T14:45:15.076Z,29.7
2018-10-03T14:48:15.537Z,30.2
2018-10-03T14:51:15.991Z,30.1
2018-10-03T14:54:15.536Z,30.4
2018-10-03T14:57:16.126Z,29.9
2018-10-03T15:00:15.832Z,30.3
2018-10-03T15:03:15.293Z,30.7
2018-10-03T15:06:16.018Z,30.6
2018-10-03T15:09:15.329Z,30.8
2018-10-03T15:12:15.683Z,30.9
2018-10-03T15:15:15.123Z,31.1
2018-10-03T15:18:15.797Z,31.1
2018-10-03T15:21:15.139Z,31.1
2018-10-03T15:24:15.599Z,31.3
2018-10-03T15:27:16.006Z,31.3
2018-10-03T15:30:15.533Z,31.4
2018-10-03T15:33:15.945Z,31.5
2018-10-03T15:36:15.241Z,31.8
2018-10-03T15:39:15.066Z,31.6
2018-10-03T15:42:15.880Z,31.8
2018-10-03T15:45:15.309Z,31.8
2018-10-03T15:48:15.500Z,31.9
2018-10-03T15:51:15.330Z,32.0
2018-10-03T15:54:15.717Z,32.2
2018-10-03T15:57:15.120Z,32.6
2018-10-03T16:00:15.346Z,32.6
2018-10-03T16:03:21.056Z,32.7
2018-10-03T16:06:15.877Z,32.9
2018-10-03T16:09:15.519Z,33.0
2018-10-03T16:12:16.059Z,33.1
2018-10-03T16:15:15.660Z,33.5
2018-10-03T16:18:15.962Z,33.5
2018-10-03T16:21:15.298Z,33.7
2018-10-03T16:24:15.615Z,33.8
2018-10-03T16:27:15.224Z,34.1
2018-10-03T16:30:15.532Z,34.6
2018-10-03T16:33:15.923Z,34.5
2018-10-03T16:36:15.501Z,34.7
2018-10-03T16:39:15.117Z,34.6
2018-10-03T16:42:15.709Z,34.8
2018-10-03T16:45:15.144Z,34.9
2018-10-03T16:48:15.634Z,35.1
2018-10-03T16:51:15.415Z,35.0
2018-10-03T16:54:15.658Z,35.3
2018-10-03T16:57:16.101Z,35.5
2018-10-03T17:00:15.507Z,35.8
2018-10-03T17:03:15.862Z,35.7
2018-10-03T17:06:15.130Z,36.1
2018-10-03T17:09:15.452Z,36.7
2018-10-03T17:12:15.998Z,36.2
2018-10-03T17:15:15.386Z,36.4
2018-10-03T17:18:15.796Z,36.2
2018-10-03T17:21:15.966Z,36.5
2018-10-03T17:24:15.279Z,36.4
2018-10-03T17:27:16.087Z,36.4
2018-10-03T17:30:15.634Z,36.6
2018-10-03T17:33:15.154Z,36.7
2018-10-03T17:36:15.674Z,36.8
2018-10-03T17:39:16.035Z,37.5
2018-10-03T17:42:15.622Z,37.0
2018-10-03T17:45:15.954Z,37.4
2018-10-03T17:48:15.087Z,37.4
2018-10-03T17:51:15.638Z,38.2
2018-10-03T17:54:15.280Z,37.8
2018-10-03T17:57:15.500Z,37.8
2018-10-03T18:00:15.880Z,38.3
2018-10-03T18:03:15.163Z,38.2
2018-10-03T18:06:15.498Z,38.6
2018-10-03T18:09:15.971Z,38.3
2018-10-03T18:12:15.398Z,39.0
2018-10-03T18:15:15.115Z,40.1
2018-10-03T18:18:15.729Z,39.4
2018-10-03T18:21:15.113Z,39.8
2018-10-03T18:24:15.557Z,39.6
2018-10-03T18:27:15.794Z,39.6
2018-10-03T18:30:15.049Z,39.8
2018-10-03T18:33:15.407Z,41.3
2018-10-03T18:36:15.755Z,41.3
2018-10-03T18:39:15.156Z,40.6
2018-10-03T18:42:15.680Z,41.3
2018-10-03T18:45:15.145Z,41.3
2018-10-03T18:48:15.586Z,42.4
2018-10-03T18:51:14.996Z,41.1
2018-10-03T18:54:15.233Z,41.4
2018-10-03T18:57:15.811Z,42.4
2018-10-03T19:00:15.326Z,41.7
2018-10-03T19:03:15.783Z,41.3
2018-10-03T19:06:16.000Z,42.4
2018-10-03T19:09:15.366Z,42.4
2018-10-03T19:12:15.835Z,42.9
2018-10-03T19:15:15.667Z,42.5
2018-10-03T19:18:15.501Z,43.1
2018-10-03T19:21:15.819Z,44.6
2018-10-03T19:24:15.306Z,43.1
2018-10-03T19:27:15.548Z,42.4
2018-10-03T19:30:15.714Z,43.3
2018-10-03T19:33:15.045Z,42.9
2018-10-03T19:36:15.519Z,43.3
2018-10-03T19:39:15.814Z,43.0
2018-10-03T19:42:15.440Z,43.9
2018-10-03T19:45:15.436Z,44.6
2018-10-03T19:48:15.919Z,44.8
2018-10-03T19:51:15.110Z,45.9
2018-10-03T19:54:15.535Z,44.3
2018-10-03T19:57:15.628Z,44.3
2018-10-03T20:00:15.326Z,44.1
2018-10-03T20:03:15.873Z,45.4
2018-10-03T20:06:15.858Z,45.4
2018-10-03T20:09:15.202Z,44.2
2018-10-03T20:12:15.674Z,44.5
2018-10-03T20:15:15.489Z,45.2
2018-10-03T20:18:15.811Z,45.8
2018-10-03T20:21:15.420Z,45.0
2018-10-03T20:24:15.947Z,45.7
2018-10-03T20:27:15.821Z,44.9
2018-10-03T20:30:15.605Z,44.8
2018-10-03T20:33:15.872Z,44.1
2018-10-03T20:36:15.717Z,44.2
2018-10-03T20:39:15.801Z,45.3
2018-10-03T20:42:15.221Z,45.0
2018-10-03T20:45:15.840Z,45.0
2018-10-03T20:48:15.062Z,46.4
2018-10-03T20:51:15.291Z,47.0
2018-10-03T20:54:15.734Z,45.0
2018-10-03T20:57:15.462Z,46.7
2018-10-03T21:00:15.687Z,44.2
2018-10-03T21:03:15.898Z,45.0
2018-10-03T21:06:15.106Z,46.6
2018-10-03T21:09:15.549Z,45.2
2018-10-03T21:12:15.717Z,45.1
2018-10-03T21:15:15.173Z,45.4
2018-10-03T21:18:15.653Z,45.7
2018-10-03T21:21:15.003Z,45.1
2018-10-03T21:24:15.255Z,45.2
2018-10-03T21:27:15.473Z,45.0
2018-10-03T21:30:15.828Z,44.9
2018-10-03T21:33:15.001Z,45.3
2018-10-03T21:36:15.359Z,45.1
2018-10-03T21:39:15.520Z,46.6
2018-10-03T21:42:15.850Z,45.5
2018-10-03T21:45:15.360Z,45.5
2018-10-03T21:48:15.718Z,46.7
2018-10-03T21:51:15.229Z,46.0
2018-10-03T21:54:15.370Z,46.1
2018-10-03T21:57:15.734Z,46.3
2018-10-03T22:00:15.043Z,45.7
2018-10-03T22:03:15.988Z,46.3
2018-10-03T22:06:15.643Z,46.7
2018-10-03T22:09:15.084Z,47.1
2018-10-03T22:12:15.346Z,46.9
2018-10-03T22:15:15.693Z,46.9
2018-10-03T22:18:15.240Z,46.6
2018-10-03T22:21:15.385Z,46.6
2018-10-03T22:24:15.848Z,46.5
2018-10-03T22:27:16.109Z,46.6
2018-10-03T22:30:15.485Z,47.8
2018-10-03T22:33:15.575Z,46.8
2018-10-03T22:36:15.885Z,47.2
2018-10-03T22:39:15.163Z,47.4
2018-10-03T22:42:15.538Z,46.2
2018-10-03T22:45:15.867Z,46.8
2018-10-03T22:48:15.933Z,47.7
2018-10-03T22:51:15.272Z,47.1
2018-10-03T22:54:15.565Z,47.9
2018-10-03T22:57:15.955Z,47.3
2018-10-03T23:00:15.224Z,47.8
2018-10-03T23:03:15.444Z,47.1
2018-10-03T23:06:15.820Z,46.8
2018-10-03T23:09:15.134Z,47.2
2018-10-03T23:12:15.342Z,47.6
2018-10-03T23:15:15.565Z,48.0
2018-10-03T23:18:15.944Z,46.5
2018-10-03T23:21:15.185Z,46.7
2018-10-03T23:24:15.355Z,47.1
2018-10-03T23:27:15.377Z,48.8
2018-10-03T23:30:15.697Z,47.6
2018-10-03T23:33:15.873Z,47.0
2018-10-03T23:36:14.960Z,47.7
2018-10-03T23:39:15.976Z,48.0
2018-10-03T23:42:15.164Z,48.0
2018-10-03T23:45:15.260Z,48.5
2018-10-03T23:48:15.470Z,47.3
2018-10-03T23:51:15.645Z,48.3
2018-10-03T23:54:15.811Z,48.2
2018-10-03T23:57:15.873Z,47.6
